createdAt,value
2019-03-24T00:02:27.686Z,9.20
2019-03-24T00:04:58.842Z,9.20
2019-03-24T00:07:30.295Z,9.10
2019-03-24T00:10:01.500Z,9.10
2019-03-24T00:12:33.700Z,9.00
2019-03-24T00:15:05.518Z,9.00
2019-03-24T00:17:36.812Z,8.90
2019-03-24T00:20:10.251Z,8.90
2019-03-24T00:22:41.671Z,8.90
2019-03-24T00:25:12.720Z,8.90
2019-03-24T00:27:43.940Z,8.80
2019-03-24T00:30:15.567Z,8.80
2019-03-24T00:32:46.837Z,8.70
2019-03-24T00:35:17.955Z,8.70
2019-03-24T00:37:49.152Z,8.70
2019-03-24T00:40:20.311Z,8.60
2019-03-24T00:42:51.516Z,8.60
2019-03-24T00:45:22.786Z,8.60
2019-03-24T00:47:54.033Z,8.60
2019-03-24T00:50:25.198Z,8.50
2019-03-24T00:52:56.413Z,8.50
2019-03-24T00:55:27.630Z,8.50
2019-03-24T00:57:58.851Z,8.50
2019-03-24T01:00:44.072Z,8.40
2019-03-24T01:03:16.352Z,8.40
2019-03-24T01:05:47.844Z,8.40
2019-03-24T01:08:18.995Z,8.40
2019-03-24T01:10:50.179Z,8.30
2019-03-24T01:13:21.850Z,8.30
2019-03-24T01:15:53.351Z,8.30
2019-03-24T01:18:24.480Z,8.30
2019-03-24T01:20:55.667Z,8.30
2019-03-24T01:23:26.839Z,8.30
2019-03-24T01:25:58.949Z,8.20
2019-03-24T01:28:30.253Z,8.20
2019-03-24T01:31:01.476Z,8.20
2019-03-24T01:33:33.057Z,8.20
2019-03-24T01:36:06.095Z,8.10
2019-03-24T01:38:37.355Z,8.10
2019-03-24T01:41:08.525Z,8.10
2019-03-24T01:43:39.703Z,8.10
2019-03-24T01:46:11.314Z,8.10
2019-03-24T01:48:42.427Z,8.00
2019-03-24T01:51:14.008Z,8.00
2019-03-24T01:53:45.209Z,8.00
2019-03-24T01:56:16.295Z,8.00
2019-03-24T01:58:47.447Z,7.90
2019-03-24T02:01:18.728Z,7.90
2019-03-24T02:03:49.938Z,7.90
2019-03-24T02:06:21.055Z,7.80
2019-03-24T02:08:52.682Z,7.80
2019-03-24T02:11:24.207Z,7.80
2019-03-24T02:13:55.323Z,7.70
2019-03-24T02:16:45.307Z,7.70
2019-03-24T02:19:16.509Z,7.60
2019-03-24T02:21:47.621Z,7.60
2019-03-24T02:24:18.876Z,7.60
2019-03-24T02:26:50.075Z,7.50
2019-03-24T02:29:21.180Z,7.50
2019-03-24T02:31:52.308Z,7.40
2019-03-24T02:34:23.497Z,7.40
2019-03-24T02:36:54.757Z,7.40
2019-03-24T02:39:26.047Z,7.40
2019-03-24T02:41:57.389Z,7.30
2019-03-24T02:44:28.969Z,7.30
2019-03-24T02:47:00.294Z,7.20
2019-03-24T02:49:31.589Z,7.20
2019-03-24T02:52:02.817Z,7.20
2019-03-24T02:54:34.095Z,7.20
2019-03-24T02:57:05.364Z,7.20
2019-03-24T02:59:36.544Z,7.10
2019-03-24T03:02:07.811Z,7.10
2019-03-24T03:04:40.055Z,7.10
2019-03-24T03:07:11.220Z,7.00
2019-03-24T03:09:42.370Z,7.00
2019-03-24T03:12:13.676Z,7.00
2019-03-24T03:14:44.777Z,7.00
2019-03-24T03:17:16.166Z,7.00
2019-03-24T03:19:47.383Z,7.00
2019-03-24T03:22:18.640Z,7.00
2019-03-24T03:24:49.761Z,6.90
2019-03-24T03:27:21.044Z,6.90
2019-03-24T03:29:52.339Z,6.90
2019-03-24T03:32:23.660Z,6.80
2019-03-24T03:34:56.009Z,6.80
2019-03-24T03:37:27.172Z,6.80
2019-03-24T03:39:58.664Z,6.70
2019-03-24T03:42:30.180Z,6.70
2019-03-24T03:45:01.441Z,6.70
2019-03-24T03:47:32.672Z,6.70
2019-03-24T03:50:05.332Z,6.60
2019-03-24T03:52:36.527Z,6.60
2019-03-24T03:55:08.280Z,6.60
2019-03-24T03:57:39.430Z,6.50
2019-03-24T04:00:11.587Z,6.50
2019-03-24T04:02:42.865Z,6.50
2019-03-24T04:05:14.083Z,6.50
2019-03-24T04:07:45.350Z,6.50
2019-03-24T04:10:16.626Z,6.40
2019-03-24T04:12:47.807Z,6.40
2019-03-24T04:15:18.985Z,6.50
2019-03-24T04:17:50.168Z,6.50
2019-03-24T04:20:21.506Z,6.40
2019-03-24T04:22:52.726Z,6.40
2019-03-24T04:25:23.901Z,6.50
2019-03-24T04:27:55.181Z,6.50
2019-03-24T04:30:26.769Z,6.40
2019-03-24T04:32:57.974Z,6.40
2019-03-24T04:35:29.055Z,6.40
2019-03-24T04:38:00.298Z,6.30
2019-03-24T04:40:31.409Z,6.30
2019-03-24T04:43:02.644Z,6.30
2019-03-24T04:45:33.824Z,6.30
2019-03-24T04:48:05.141Z,6.30
2019-03-24T04:50:36.403Z,6.20
2019-03-24T04:53:07.637Z,6.20
2019-03-24T04:55:38.771Z,6.10
2019-03-24T04:58:10.443Z,6.10
2019-03-24T05:00:42.003Z,6.00
2019-03-24T05:03:13.224Z,6.00
2019-03-24T05:05:44.765Z,6.00
2019-03-24T05:08:16.025Z,6.00
2019-03-24T05:10:48.517Z,6.00
2019-03-24T05:13:19.687Z,6.00
2019-03-24T05:15:50.984Z,6.00
2019-03-24T05:18:22.363Z,6.00
2019-03-24T05:20:53.621Z,5.90
2019-03-24T05:23:24.872Z,6.00
2019-03-24T05:25:56.151Z,6.00
2019-03-24T05:28:28.575Z,6.10
2019-03-24T05:30:59.632Z,6.10
2019-03-24T05:33:30.756Z,6.20
2019-03-24T05:36:01.973Z,6.20
2019-03-24T05:38:33.265Z,6.30
2019-03-24T05:41:04.536Z,6.40
2019-03-24T05:43:36.789Z,6.50
2019-03-24T05:46:08.009Z,6.70
2019-03-24T05:48:39.174Z,7.00
2019-03-24T05:51:10.349Z,7.40
2019-03-24T05:53:41.574Z,7.70
2019-03-24T05:56:12.850Z,7.80
2019-03-24T05:58:44.046Z,7.90
2019-03-24T06:01:15.332Z,8.00
2019-03-24T06:03:47.299Z,8.10
2019-03-24T06:06:18.529Z,8.30
2019-03-24T06:08:49.737Z,8.40
2019-03-24T06:11:20.936Z,8.60
2019-03-24T06:13:52.187Z,9.30
2019-03-24T06:16:23.429Z,10.40
2019-03-24T06:18:54.597Z,11.20
2019-03-24T06:21:25.833Z,11.90
2019-03-24T06:23:57.359Z,12.60
2019-03-24T06:26:28.453Z,13.10
2019-03-24T06:28:59.622Z,13.60
2019-03-24T06:31:30.658Z,14.20
2019-03-24T06:34:01.956Z,14.70
2019-03-24T06:36:33.162Z,15.20
2019-03-24T06:39:05.404Z,15.90
2019-03-24T06:41:36.714Z,16.30
2019-03-24T06:44:07.990Z,16.60
2019-03-24T06:46:39.507Z,16.90
2019-03-24T06:49:10.749Z,17.40
2019-03-24T06:51:41.979Z,18.00
2019-03-24T06:54:13.216Z,18.10
2019-03-24T06:56:44.470Z,18.60
2019-03-24T06:59:15.589Z,19.10
2019-03-24T07:01:46.873Z,19.80
2019-03-24T07:04:18.017Z,20.50
2019-03-24T07:06:49.992Z,21.10
2019-03-24T07:09:21.159Z,21.80
2019-03-24T07:12:00.165Z,22.30
2019-03-24T07:14:31.897Z,22.80
2019-03-24T07:17:03.045Z,23.30
2019-03-24T07:19:34.303Z,23.90
2019-03-24T07:22:07.281Z,24.40
2019-03-24T07:24:38.356Z,24.80
2019-03-24T07:27:09.595Z,25.20
2019-03-24T07:29:41.280Z,25.60
2019-03-24T07:32:12.603Z,26.00
2019-03-24T07:34:43.938Z,26.40
2019-03-24T07:37:15.172Z,26.80
2019-03-24T07:39:46.490Z,27.30
2019-03-24T07:42:17.736Z,27.70
2019-03-24T07:44:48.827Z,28.10
2019-03-24T07:47:20.072Z,28.30
2019-03-24T07:49:55.006Z,28.70
2019-03-24T07:52:27.071Z,29.20
2019-03-24T07:54:58.246Z,29.70
2019-03-24T07:57:29.455Z,30.40
2019-03-24T08:00:00.557Z,30.80
2019-03-24T08:02:31.689Z,31.20
2019-03-24T08:05:03.189Z,31.40
2019-03-24T08:07:34.335Z,31.70
2019-03-24T08:10:07.525Z,31.70
2019-03-24T08:12:38.724Z,31.50
2019-03-24T08:15:10.133Z,31.70
2019-03-24T08:17:41.309Z,31.60
2019-03-24T08:20:12.504Z,31.70
2019-03-24T08:22:43.736Z,31.50
2019-03-24T08:25:14.917Z,31.60
2019-03-24T08:27:46.217Z,32.20
2019-03-24T08:30:25.715Z,32.70
2019-03-24T08:32:56.940Z,33.00
2019-03-24T08:35:28.191Z,33.50
2019-03-24T08:37:59.448Z,33.80
2019-03-24T08:40:30.589Z,34.20
2019-03-24T08:43:01.844Z,34.70
2019-03-24T08:45:33.257Z,35.30
2019-03-24T08:48:04.536Z,35.80
2019-03-24T08:50:35.787Z,36.10
2019-03-24T08:53:06.997Z,36.50
2019-03-24T08:55:38.495Z,37.00
2019-03-24T08:58:09.667Z,37.10
2019-03-24T09:00:41.248Z,37.20
2019-03-24T09:03:13.956Z,37.00
2019-03-24T09:05:45.185Z,36.90
2019-03-24T09:08:16.335Z,37.20
2019-03-24T09:10:47.624Z,37.40
2019-03-24T09:13:18.819Z,37.60
2019-03-24T09:15:50.178Z,37.90
2019-03-24T09:18:21.362Z,38.10
2019-03-24T09:20:52.516Z,38.40
2019-03-24T09:23:23.719Z,38.80
2019-03-24T09:25:54.933Z,38.90
2019-03-24T09:28:26.226Z,38.90
2019-03-24T09:30:57.436Z,38.90
2019-03-24T09:33:28.696Z,39.10
2019-03-24T09:35:59.867Z,39.40
2019-03-24T09:38:31.018Z,39.50
2019-03-24T09:41:02.137Z,39.40
2019-03-24T09:43:33.261Z,39.40
2019-03-24T09:46:04.858Z,39.30
2019-03-24T09:48:36.106Z,39.00
2019-03-24T09:51:07.309Z,38.60
2019-03-24T09:53:38.557Z,38.10
2019-03-24T09:56:09.631Z,37.90
2019-03-24T09:58:41.252Z,37.80
2019-03-24T10:01:12.524Z,37.80
2019-03-24T10:03:45.936Z,37.80
2019-03-24T10:06:17.409Z,37.80
2019-03-24T10:08:48.703Z,37.80
2019-03-24T10:11:19.915Z,37.80
2019-03-24T10:13:51.354Z,37.80
2019-03-24T10:16:22.694Z,37.30
2019-03-24T10:18:53.923Z,37.10
2019-03-24T10:21:27.196Z,37.10
2019-03-24T10:23:58.304Z,37.10
2019-03-24T10:26:29.597Z,37.00
2019-03-24T10:29:03.114Z,36.80
2019-03-24T10:31:34.428Z,36.60
2019-03-24T10:34:05.695Z,36.30
2019-03-24T10:36:36.892Z,35.90
2019-03-24T10:39:08.222Z,35.40
2019-03-24T10:41:39.424Z,34.90
2019-03-24T10:44:10.668Z,34.30
2019-03-24T10:46:42.927Z,33.70
2019-03-24T10:49:24.367Z,32.80
2019-03-24T10:51:47.354Z,31.90
2019-03-24T10:54:19.645Z,30.90
2019-03-24T10:56:50.909Z,30.10
2019-03-24T10:59:22.123Z,29.60
2019-03-24T11:01:53.302Z,29.00
2019-03-24T11:04:24.511Z,28.50
2019-03-24T11:06:55.682Z,28.20
2019-03-24T11:09:26.923Z,28.00
2019-03-24T11:11:58.013Z,27.80
2019-03-24T11:14:29.106Z,27.10
2019-03-24T11:17:00.238Z,26.50
2019-03-24T11:19:35.740Z,26.30
2019-03-24T11:22:04.264Z,26.10
2019-03-24T11:24:36.781Z,25.70
2019-03-24T11:27:08.043Z,25.20
2019-03-24T11:29:39.143Z,24.70
2019-03-24T11:32:10.281Z,24.40
2019-03-24T11:34:41.379Z,24.20
2019-03-24T11:37:12.629Z,24.20
2019-03-24T11:39:43.815Z,24.30
2019-03-24T11:42:15.026Z,24.20
2019-03-24T11:44:46.333Z,24.20
2019-03-24T11:47:26.174Z,24.00
2019-03-24T11:49:50.456Z,23.90
2019-03-24T11:52:21.580Z,23.90
2019-03-24T11:54:52.854Z,23.80
2019-03-24T11:57:24.119Z,23.80
2019-03-24T11:59:55.420Z,23.70
2019-03-24T12:02:26.974Z,23.60
2019-03-24T12:04:58.175Z,23.50
2019-03-24T12:07:29.418Z,23.30
2019-03-24T12:10:00.627Z,23.10
2019-03-24T12:12:31.874Z,23.00
2019-03-24T12:15:05.345Z,22.90
2019-03-24T12:17:36.900Z,22.80
2019-03-24T12:20:08.542Z,22.60
2019-03-24T12:22:39.870Z,22.40
2019-03-24T12:25:11.067Z,22.20
2019-03-24T12:27:42.359Z,22.00
2019-03-24T12:30:13.673Z,21.60
2019-03-24T12:32:44.895Z,21.30
2019-03-24T12:35:16.102Z,21.10
2019-03-24T12:37:47.837Z,21.10
2019-03-24T12:40:18.956Z,21.00
2019-03-24T12:42:50.045Z,21.00
2019-03-24T12:45:21.171Z,20.90
2019-03-24T12:47:52.293Z,20.90
2019-03-24T12:50:31.506Z,20.80
2019-03-24T12:52:56.250Z,20.70
2019-03-24T12:55:27.421Z,20.60
2019-03-24T12:57:58.770Z,20.50
2019-03-24T13:00:35.474Z,20.50
2019-03-24T13:03:06.939Z,20.50
2019-03-24T13:05:38.026Z,20.50
2019-03-24T13:08:19.334Z,20.60
2019-03-24T13:10:50.789Z,20.40
2019-03-24T13:13:21.976Z,20.30
2019-03-24T13:15:53.236Z,20.20
2019-03-24T13:18:24.427Z,20.10
2019-03-24T13:20:55.761Z,20.10
2019-03-24T13:23:45.807Z,20.10
2019-03-24T13:26:17.080Z,20.10
2019-03-24T13:28:48.852Z,20.10
2019-03-24T13:31:20.362Z,20.00
2019-03-24T13:33:51.648Z,20.00
2019-03-24T13:36:24.247Z,19.80
2019-03-24T13:38:55.430Z,19.70
2019-03-24T13:41:26.538Z,19.50
2019-03-24T13:43:57.783Z,19.50
2019-03-24T13:46:29.059Z,19.70
2019-03-24T13:49:00.289Z,19.80
2019-03-24T13:51:31.569Z,20.00
2019-03-24T13:54:03.159Z,20.20
2019-03-24T13:56:34.443Z,20.30
2019-03-24T13:59:05.543Z,20.40
2019-03-24T14:01:37.139Z,20.50
2019-03-24T14:04:08.425Z,20.50
2019-03-24T14:06:39.569Z,20.40
2019-03-24T14:09:11.937Z,20.30
2019-03-24T14:11:43.208Z,20.10
2019-03-24T14:14:14.431Z,20.10
2019-03-24T14:16:46.714Z,20.20
2019-03-24T14:19:18.126Z,20.30
2019-03-24T14:21:49.899Z,20.30
2019-03-24T14:24:21.006Z,20.20
2019-03-24T14:26:52.147Z,20.10
2019-03-24T14:29:23.339Z,20.00
2019-03-24T14:31:54.437Z,20.00
2019-03-24T14:34:25.759Z,19.90
2019-03-24T14:36:57.094Z,19.90
2019-03-24T14:39:28.557Z,19.70
2019-03-24T14:41:59.804Z,19.60
2019-03-24T14:44:31.001Z,19.40
2019-03-24T14:47:02.352Z,19.10
2019-03-24T14:49:33.942Z,18.90
2019-03-24T14:52:05.945Z,18.70
2019-03-24T14:54:38.776Z,18.50
2019-03-24T14:57:10.033Z,18.50
2019-03-24T14:59:41.828Z,18.50
2019-03-24T15:02:13.039Z,18.60
2019-03-24T15:04:44.364Z,18.60
2019-03-24T15:07:15.946Z,18.70
2019-03-24T15:09:47.427Z,18.60
2019-03-24T15:12:18.991Z,18.50
2019-03-24T15:14:50.392Z,18.40
2019-03-24T15:17:21.908Z,18.30
2019-03-24T15:19:53.198Z,18.10
2019-03-24T15:22:24.349Z,17.90
2019-03-24T15:24:55.567Z,17.70
2019-03-24T15:27:27.940Z,17.40
2019-03-24T15:29:59.479Z,17.20
2019-03-24T15:32:31.006Z,17.10
2019-03-24T15:35:03.004Z,17.00
2019-03-24T15:37:37.921Z,17.00
2019-03-24T15:40:09.923Z,17.00
2019-03-24T15:42:41.747Z,16.90
2019-03-24T15:45:13.436Z,16.80
2019-03-24T15:47:46.128Z,16.80
2019-03-24T15:50:17.264Z,16.80
2019-03-24T15:52:48.570Z,16.90
2019-03-24T15:55:20.964Z,16.80
2019-03-24T15:57:52.238Z,16.90
2019-03-24T16:00:45.164Z,16.90
2019-03-24T16:03:18.012Z,16.80
2019-03-24T16:05:49.847Z,16.70
2019-03-24T16:08:21.059Z,16.60
2019-03-24T16:10:55.505Z,16.50
2019-03-24T16:13:27.068Z,16.50
2019-03-24T16:15:58.339Z,16.40
2019-03-24T16:18:29.555Z,16.40
2019-03-24T16:21:01.128Z,16.30
2019-03-24T16:23:32.653Z,16.20
2019-03-24T16:26:03.921Z,16.20
2019-03-24T16:28:35.255Z,16.10
2019-03-24T16:31:06.499Z,15.90
2019-03-24T16:33:38.627Z,15.60
2019-03-24T16:36:09.843Z,15.40
2019-03-24T16:38:48.902Z,15.10
2019-03-24T16:41:13.855Z,14.90
2019-03-24T16:43:45.156Z,14.70
2019-03-24T16:46:16.245Z,14.50
2019-03-24T16:48:47.660Z,14.30
2019-03-24T16:51:18.950Z,14.10
2019-03-24T16:53:50.237Z,14.00
2019-03-24T16:56:21.388Z,13.80
2019-03-24T16:58:52.783Z,13.70
2019-03-24T17:01:24.087Z,13.60
2019-03-24T17:03:55.349Z,13.50
2019-03-24T17:06:27.105Z,13.40
2019-03-24T17:08:58.227Z,13.50
2019-03-24T17:11:29.512Z,13.50
2019-03-24T17:14:00.707Z,13.50
2019-03-24T17:16:32.115Z,13.50
2019-03-24T17:19:03.338Z,13.50
2019-03-24T17:21:34.692Z,13.40
2019-03-24T17:24:07.675Z,13.40
2019-03-24T17:26:38.963Z,13.30
2019-03-24T17:29:10.232Z,13.30
2019-03-24T17:31:41.603Z,13.20
2019-03-24T17:34:12.900Z,13.10
2019-03-24T17:36:44.726Z,12.90
2019-03-24T17:39:16.432Z,12.80
2019-03-24T17:41:47.697Z,12.70
2019-03-24T17:44:19.297Z,12.50
2019-03-24T17:46:50.800Z,12.40
2019-03-24T17:49:22.294Z,12.30
2019-03-24T17:52:00.735Z,12.10
2019-03-24T17:54:26.736Z,12.00
2019-03-24T17:56:58.037Z,12.00
2019-03-24T17:59:29.468Z,11.90
2019-03-24T18:02:01.368Z,11.80
2019-03-24T18:04:32.574Z,11.80
2019-03-24T18:07:03.870Z,11.80
2019-03-24T18:09:35.235Z,11.80
2019-03-24T18:12:06.374Z,11.80
2019-03-24T18:14:37.766Z,11.80
2019-03-24T18:17:09.219Z,11.90
2019-03-24T18:19:40.462Z,12.00
2019-03-24T18:22:12.136Z,12.10
2019-03-24T18:24:43.476Z,12.20
2019-03-24T18:27:17.964Z,12.30
2019-03-24T18:29:49.229Z,12.40
2019-03-24T18:32:22.970Z,12.50
2019-03-24T18:34:53.439Z,12.60
2019-03-24T18:37:24.671Z,12.60
2019-03-24T18:39:55.964Z,12.70
2019-03-24T18:42:28.846Z,12.80
2019-03-24T18:45:01.155Z,12.90
2019-03-24T18:47:33.687Z,12.90
2019-03-24T18:50:05.515Z,12.90
2019-03-24T18:52:36.728Z,13.00
2019-03-24T18:55:08.866Z,13.00
2019-03-24T18:57:40.041Z,13.00
2019-03-24T19:00:13.707Z,13.00
2019-03-24T19:02:45.244Z,13.00
2019-03-24T19:05:16.974Z,13.00
2019-03-24T19:07:48.218Z,13.00
2019-03-24T19:10:19.799Z,13.00
2019-03-24T19:12:51.125Z,13.10
2019-03-24T19:15:22.675Z,13.00
2019-03-24T19:17:54.177Z,13.00
2019-03-24T19:20:26.271Z,13.00
2019-03-24T19:22:57.852Z,13.00
2019-03-24T19:25:39.333Z,13.00
2019-03-24T19:28:30.061Z,12.90
2019-03-24T19:31:01.566Z,12.70
2019-03-24T19:33:33.037Z,12.60
2019-03-24T19:36:04.281Z,12.50
2019-03-24T19:38:35.734Z,12.50
2019-03-24T19:41:08.599Z,12.50
2019-03-24T19:43:39.950Z,12.50
2019-03-24T19:46:11.738Z,12.60
2019-03-24T19:48:43.127Z,12.50
2019-03-24T19:51:14.405Z,12.60
2019-03-24T19:53:45.740Z,12.60
2019-03-24T19:56:17.191Z,12.60
2019-03-24T19:58:48.515Z,12.60
2019-03-24T20:01:19.771Z,12.60
2019-03-24T20:03:50.923Z,12.60
2019-03-24T20:06:22.332Z,12.60
2019-03-24T20:08:53.613Z,12.60
2019-03-24T20:11:24.932Z,12.50
2019-03-24T20:13:56.357Z,12.60
2019-03-24T20:16:27.591Z,12.60
2019-03-24T20:18:58.936Z,12.50
2019-03-24T20:21:30.377Z,12.50
2019-03-24T20:24:01.802Z,12.50
2019-03-24T20:26:33.225Z,12.50
2019-03-24T20:29:04.508Z,12.50
2019-03-24T20:31:35.858Z,12.50
2019-03-24T20:34:07.088Z,12.50
2019-03-24T20:36:38.369Z,12.40
2019-03-24T20:39:10.560Z,12.40
2019-03-24T20:41:41.858Z,12.30
2019-03-24T20:44:13.246Z,12.30
2019-03-24T20:46:44.490Z,12.20
2019-03-24T20:49:15.991Z,12.10
2019-03-24T20:51:47.315Z,12.10
2019-03-24T20:54:18.687Z,12.10
2019-03-24T20:56:51.213Z,12.00
2019-03-24T20:59:22.519Z,12.00
2019-03-24T21:01:53.787Z,11.90
2019-03-24T21:04:24.978Z,11.70
2019-03-24T21:06:56.627Z,11.60
2019-03-24T21:09:27.913Z,11.50
2019-03-24T21:11:59.251Z,11.50
2019-03-24T21:14:30.347Z,11.40
2019-03-24T21:17:01.640Z,11.40
2019-03-24T21:19:32.970Z,11.40
2019-03-24T21:22:05.183Z,11.40
2019-03-24T21:24:36.845Z,11.30
2019-03-24T21:27:07.928Z,11.20
2019-03-24T21:29:39.215Z,11.00
2019-03-24T21:32:10.460Z,10.90
2019-03-24T21:34:41.691Z,10.90
2019-03-24T21:37:13.841Z,10.80
2019-03-24T21:39:45.086Z,10.80
2019-03-24T21:42:16.838Z,10.80
2019-03-24T21:44:48.109Z,10.80
2019-03-24T21:47:19.413Z,10.90
2019-03-24T21:49:50.558Z,10.90
2019-03-24T21:52:21.777Z,11.00
2019-03-24T21:54:54.063Z,11.10
2019-03-24T21:57:26.302Z,11.20
2019-03-24T21:59:57.820Z,11.30
2019-03-24T22:02:29.053Z,11.30
2019-03-24T22:05:00.364Z,11.40
2019-03-24T22:07:31.624Z,11.40
2019-03-24T22:10:02.870Z,11.50
2019-03-24T22:12:34.683Z,11.50
2019-03-24T22:15:07.120Z,11.60
2019-03-24T22:17:38.786Z,11.60
2019-03-24T22:20:12.303Z,11.60
2019-03-24T22:22:43.502Z,11.60
2019-03-24T22:25:14.766Z,11.60
2019-03-24T22:27:46.257Z,11.60
2019-03-24T22:30:17.748Z,11.60
2019-03-24T22:32:49.009Z,11.60
2019-03-24T22:35:20.731Z,11.50
2019-03-24T22:37:52.118Z,11.30
2019-03-24T22:40:23.341Z,11.20
2019-03-24T22:42:55.084Z,11.00
2019-03-24T22:45:26.267Z,10.90
2019-03-24T22:47:57.546Z,10.80
2019-03-24T22:50:29.064Z,10.80
2019-03-24T22:53:00.519Z,10.90
2019-03-24T22:55:31.750Z,10.90
2019-03-24T22:58:03.053Z,10.90
2019-03-24T23:00:52.269Z,10.90
2019-03-24T23:03:25.181Z,10.90
2019-03-24T23:05:56.860Z,10.90
2019-03-24T23:08:28.167Z,10.90
2019-03-24T23:10:59.362Z,10.90
2019-03-24T23:13:30.603Z,10.90
2019-03-24T23:16:01.737Z,11.00
2019-03-24T23:18:33.023Z,10.90
2019-03-24T23:21:04.286Z,10.90
2019-03-24T23:23:35.428Z,10.90
2019-03-24T23:26:06.751Z,10.90
2019-03-24T23:28:38.035Z,10.90
2019-03-24T23:31:09.263Z,10.90
2019-03-24T23:33:40.588Z,10.90
2019-03-24T23:36:12.121Z,10.90
2019-03-24T23:38:43.278Z,10.80
2019-03-24T23:41:14.387Z,10.80
2019-03-24T23:43:45.611Z,10.80
2019-03-24T23:46:16.823Z,10.70
2019-03-24T23:48:48.286Z,10.70
2019-03-24T23:51:19.479Z,10.60
2019-03-24T23:53:50.729Z,10.60
2019-03-24T23:56:21.874Z,10.50
2019-03-24T23:58:53.090Z,10.50
